createdAt,value
2019-05-11T00:00:48.115Z,18.30
2019-05-11T00:03:16.476Z,19.62
2019-05-11T00:05:44.868Z,20.27
2019-05-11T00:08:13.232Z,20.35
2019-05-11T00:10:41.594Z,19.35
2019-05-11T00:13:09.920Z,20.70
2019-05-11T00:15:38.278Z,19.65
2019-05-11T00:18:06.679Z,20.25
2019-05-11T00:20:35.084Z,21.07
2019-05-11T00:23:03.451Z,21.50
2019-05-11T00:25:31.816Z,19.67
2019-05-11T00:28:00.242Z,21.03
2019-05-11T00:30:28.580Z,20.70
2019-05-11T00:32:56.873Z,21.07
2019-05-11T00:35:25.195Z,19.95
2019-05-11T00:37:53.556Z,21.20
2019-05-11T00:40:22.212Z,22.10
2019-05-11T00:42:50.578Z,20.68
2019-05-11T00:45:18.905Z,21.20
2019-05-11T00:47:47.268Z,22.42
2019-05-11T00:50:15.673Z,22.40
2019-05-11T00:52:44.040Z,21.17
2019-05-11T00:55:12.471Z,21.68
2019-05-11T00:57:40.888Z,22.35
2019-05-11T01:00:09.243Z,21.30
2019-05-11T01:02:37.532Z,22.60
2019-05-11T01:05:06.936Z,22.48
2019-05-11T01:07:35.277Z,23.18
2019-05-11T01:10:05.988Z,23.12
2019-05-11T01:12:34.399Z,24.15
2019-05-11T01:15:02.773Z,24.05
2019-05-11T01:17:31.133Z,22.65
2019-05-11T01:20:00.013Z,23.87
2019-05-11T01:22:28.306Z,23.57
2019-05-11T01:24:56.664Z,23.35
2019-05-11T01:27:25.182Z,23.25
2019-05-11T01:29:53.555Z,22.67
2019-05-11T01:32:21.871Z,22.37
2019-05-11T01:34:50.280Z,22.75
2019-05-11T01:37:18.646Z,22.13
2019-05-11T01:39:46.954Z,23.00
2019-05-11T01:42:15.357Z,23.20
2019-05-11T01:44:43.724Z,22.20
2019-05-11T01:47:12.088Z,23.77
2019-05-11T01:49:40.400Z,21.95
2019-05-11T01:52:08.689Z,22.02
2019-05-11T01:54:37.043Z,23.95
2019-05-11T01:57:05.380Z,22.55
2019-05-11T01:59:33.672Z,22.15
2019-05-11T02:02:01.970Z,22.25
2019-05-11T02:04:30.394Z,21.60
2019-05-11T02:06:58.755Z,21.80
2019-05-11T02:09:27.044Z,21.82
2019-05-11T02:11:55.439Z,23.25
2019-05-11T02:14:24.179Z,21.27
2019-05-11T02:16:52.546Z,21.37
2019-05-11T02:19:20.870Z,21.10
2019-05-11T02:21:49.215Z,21.93
2019-05-11T02:24:17.513Z,21.52
2019-05-11T02:26:45.833Z,23.38
2019-05-11T02:29:14.207Z,22.05
2019-05-11T02:31:42.671Z,21.75
2019-05-11T02:34:10.990Z,21.30
2019-05-11T02:36:39.363Z,22.20
2019-05-11T02:39:07.828Z,21.77
2019-05-11T02:41:37.594Z,21.68
2019-05-11T02:44:06.232Z,21.42
2019-05-11T02:46:34.533Z,20.97
2019-05-11T02:49:02.946Z,20.55
2019-05-11T02:51:31.303Z,20.47
2019-05-11T02:53:59.691Z,20.05
2019-05-11T02:56:28.065Z,21.07
2019-05-11T02:58:56.797Z,21.07
2019-05-11T03:01:25.151Z,21.87
2019-05-11T03:03:53.545Z,23.62
2019-05-11T03:06:21.911Z,19.82
2019-05-11T03:08:50.310Z,20.45
2019-05-11T03:11:18.685Z,21.55
2019-05-11T03:13:47.095Z,22.40
2019-05-11T03:16:15.453Z,22.17
2019-05-11T03:18:43.838Z,23.27
2019-05-11T03:21:12.203Z,22.57
2019-05-11T03:23:40.552Z,21.37
2019-05-11T03:26:08.858Z,22.70
2019-05-11T03:28:37.144Z,22.85
2019-05-11T03:31:05.440Z,23.67
2019-05-11T03:33:33.820Z,25.05
2019-05-11T03:36:02.123Z,24.98
2019-05-11T03:38:30.481Z,24.97
2019-05-11T03:40:58.880Z,23.55
2019-05-11T03:43:27.180Z,23.70
2019-05-11T03:45:55.543Z,25.43
2019-05-11T03:48:23.867Z,25.25
2019-05-11T03:50:52.235Z,23.83
2019-05-11T03:53:20.606Z,25.37
2019-05-11T03:55:48.991Z,24.80
2019-05-11T03:58:17.293Z,24.85
2019-05-11T04:00:45.693Z,26.10
2019-05-11T04:03:14.050Z,25.32
2019-05-11T04:05:42.760Z,25.60
2019-05-11T04:08:11.122Z,25.55
2019-05-11T04:10:39.503Z,24.95
2019-05-11T04:13:07.877Z,24.52
2019-05-11T04:15:36.263Z,23.98
2019-05-11T04:18:04.653Z,23.05
2019-05-11T04:20:33.009Z,24.47
2019-05-11T04:23:01.295Z,26.00
2019-05-11T04:25:29.619Z,24.57
2019-05-11T04:27:57.986Z,23.70
2019-05-11T04:30:26.354Z,23.87
2019-05-11T04:32:54.729Z,21.97
2019-05-11T04:35:23.017Z,23.70
2019-05-11T04:37:51.378Z,21.37
2019-05-11T04:40:19.778Z,19.80
2019-05-11T04:42:55.389Z,22.43
2019-05-11T04:45:18.155Z,22.48
2019-05-11T04:47:46.550Z,22.52
2019-05-11T04:50:15.103Z,22.47
2019-05-11T04:52:43.466Z,24.27
2019-05-11T04:55:11.871Z,25.45
2019-05-11T04:57:40.245Z,28.62
2019-05-11T05:00:08.547Z,28.23
2019-05-11T05:02:36.940Z,27.22
2019-05-11T05:05:06.054Z,25.80
2019-05-11T05:07:34.421Z,24.60
2019-05-11T05:10:02.824Z,26.07
2019-05-11T05:12:31.189Z,25.00
2019-05-11T05:14:59.498Z,25.60
2019-05-11T05:17:27.862Z,24.35
2019-05-11T05:19:56.234Z,25.30
2019-05-11T05:22:27.750Z,25.93
2019-05-11T05:24:54.646Z,27.05
2019-05-11T05:27:23.023Z,26.40
2019-05-11T05:29:51.384Z,27.02
2019-05-11T05:32:19.779Z,26.95
2019-05-11T05:34:48.078Z,25.83
2019-05-11T05:37:16.437Z,27.85
2019-05-11T05:39:44.753Z,26.48
2019-05-11T05:42:13.056Z,28.02
2019-05-11T05:44:41.421Z,29.63
2019-05-11T05:47:09.752Z,27.48
2019-05-11T05:49:38.131Z,28.02
2019-05-11T05:52:06.629Z,30.72
2019-05-11T05:54:34.984Z,29.12
2019-05-11T05:57:03.286Z,31.00
2019-05-11T05:59:31.916Z,34.23
2019-05-11T06:02:00.375Z,33.13
2019-05-11T06:04:29.002Z,31.97
2019-05-11T06:06:57.287Z,33.02
2019-05-11T06:09:25.673Z,36.28
2019-05-11T06:11:54.046Z,35.68
2019-05-11T06:14:22.386Z,35.25
2019-05-11T06:16:50.718Z,35.20
2019-05-11T06:19:19.027Z,37.13
2019-05-11T06:21:47.397Z,37.45
2019-05-11T06:24:15.800Z,37.38
2019-05-11T06:26:44.157Z,38.65
2019-05-11T06:29:12.540Z,39.50
2019-05-11T06:31:41.304Z,40.33
2019-05-11T06:34:09.676Z,39.73
2019-05-11T06:36:38.079Z,42.33
2019-05-11T06:39:08.139Z,41.08
2019-05-11T06:41:37.050Z,43.25
2019-05-11T06:44:06.370Z,42.85
2019-05-11T06:46:35.237Z,43.30
2019-05-11T06:49:03.740Z,42.75
2019-05-11T06:51:32.031Z,43.30
2019-05-11T06:54:00.371Z,46.25
2019-05-11T06:56:28.736Z,46.67
2019-05-11T06:58:57.026Z,39.70
2019-05-11T07:01:25.330Z,38.48
2019-05-11T07:03:53.688Z,40.60
2019-05-11T07:06:25.579Z,46.13
2019-05-11T07:08:52.030Z,42.03
2019-05-11T07:11:20.689Z,44.83
2019-05-11T07:13:49.000Z,45.47
2019-05-11T07:16:17.382Z,39.85
2019-05-11T07:18:46.002Z,80.45
2019-05-11T07:21:14.310Z,43.80
2019-05-11T07:23:42.696Z,76.50
2019-05-11T07:26:11.071Z,42.62
2019-05-11T07:28:39.434Z,42.90
2019-05-11T07:31:07.745Z,43.23
2019-05-11T07:33:37.978Z,42.93
2019-05-11T07:36:08.305Z,49.63
2019-05-11T07:38:38.182Z,66.60
2019-05-11T07:41:08.768Z,47.08
2019-05-11T07:43:38.052Z,43.98
2019-05-11T07:46:07.801Z,41.35
2019-05-11T07:48:38.769Z,43.20
2019-05-11T07:51:08.895Z,44.83
2019-05-11T07:53:38.050Z,42.78
2019-05-11T07:56:08.350Z,42.15
2019-05-11T07:58:38.752Z,44.48
2019-05-11T08:01:08.702Z,45.40
2019-05-11T08:03:38.897Z,44.63
2019-05-11T08:06:08.956Z,44.40
2019-05-11T08:08:38.398Z,50.33
2019-05-11T08:11:08.110Z,43.37
2019-05-11T08:13:38.766Z,44.50
2019-05-11T08:16:08.227Z,43.35
2019-05-11T08:18:38.709Z,43.50
2019-05-11T08:21:08.788Z,40.38
2019-05-11T08:23:37.726Z,44.60
2019-05-11T08:26:08.219Z,39.70
2019-05-11T08:28:38.097Z,36.95
2019-05-11T08:31:08.063Z,34.35
2019-05-11T08:33:38.687Z,31.37
2019-05-11T08:36:08.151Z,32.03
2019-05-11T08:38:37.766Z,30.30
2019-05-11T08:41:08.082Z,30.77
2019-05-11T08:43:38.696Z,27.05
2019-05-11T08:46:08.008Z,28.40
2019-05-11T08:48:38.640Z,29.15
2019-05-11T08:51:08.447Z,28.27
2019-05-11T08:53:38.724Z,26.87
2019-05-11T08:56:09.236Z,29.50
2019-05-11T08:58:38.038Z,25.77
2019-05-11T09:01:08.633Z,22.27
2019-05-11T09:03:38.546Z,22.30
2019-05-11T09:06:08.403Z,22.52
2019-05-11T09:08:38.812Z,20.85
2019-05-11T09:11:08.405Z,20.00
2019-05-11T09:13:39.218Z,20.20
2019-05-11T09:16:07.896Z,19.65
2019-05-11T09:18:38.479Z,16.82
2019-05-11T09:21:08.477Z,16.20
2019-05-11T09:23:40.338Z,15.03
2019-05-11T09:26:08.738Z,16.27
2019-05-11T09:28:38.409Z,15.25
2019-05-11T09:31:08.573Z,15.50
2019-05-11T09:33:38.611Z,15.25
2019-05-11T09:36:08.525Z,14.98
2019-05-11T09:38:38.355Z,14.80
2019-05-11T09:41:08.966Z,16.48
2019-05-11T09:43:37.653Z,15.98
2019-05-11T09:46:08.376Z,14.35
2019-05-11T09:48:37.840Z,13.48
2019-05-11T09:51:07.930Z,12.18
2019-05-11T09:53:38.670Z,16.17
2019-05-11T09:56:08.054Z,12.75
2019-05-11T09:58:38.583Z,11.88
2019-05-11T10:01:08.659Z,13.43
2019-05-11T10:03:38.613Z,14.60
2019-05-11T10:06:08.304Z,12.40
2019-05-11T10:08:57.959Z,12.25
2019-05-11T10:11:28.160Z,12.50
2019-05-11T10:13:57.812Z,13.62
2019-05-11T10:16:29.305Z,10.82
2019-05-11T10:18:59.134Z,11.83
2019-05-11T10:21:28.022Z,10.28
2019-05-11T10:23:57.963Z,9.83
2019-05-11T10:26:27.867Z,11.55
2019-05-11T10:28:58.344Z,11.12
2019-05-11T10:31:28.549Z,9.83
2019-05-11T10:33:58.060Z,9.85
2019-05-11T10:36:28.032Z,10.43
2019-05-11T10:38:58.645Z,10.70
2019-05-11T10:41:28.465Z,11.77
2019-05-11T10:43:58.068Z,12.90
2019-05-11T10:46:28.696Z,11.60
2019-05-11T10:48:58.638Z,13.10
2019-05-11T10:51:28.824Z,11.80
2019-05-11T10:53:57.810Z,11.23
2019-05-11T10:56:28.480Z,12.60
2019-05-11T10:58:58.470Z,11.63
2019-05-11T11:01:28.410Z,9.80
2019-05-11T11:03:58.544Z,12.18
2019-05-11T11:06:28.166Z,13.98
2019-05-11T11:08:57.915Z,13.68
2019-05-11T11:11:27.820Z,12.98
2019-05-11T11:13:58.304Z,10.43
2019-05-11T11:16:37.018Z,10.50
2019-05-11T11:18:58.686Z,11.25
2019-05-11T11:21:27.875Z,13.93
2019-05-11T11:23:58.572Z,12.60
2019-05-11T11:26:28.457Z,11.97
2019-05-11T11:28:58.135Z,10.63
2019-05-11T11:31:28.594Z,11.85
2019-05-11T11:33:58.459Z,10.63
2019-05-11T11:36:28.406Z,10.35
2019-05-11T11:38:58.399Z,8.25
2019-05-11T11:41:26.894Z,10.40
2019-05-11T11:43:55.189Z,9.70
2019-05-11T11:46:23.519Z,11.28
2019-05-11T11:48:51.821Z,9.28
2019-05-11T11:51:20.137Z,10.05
2019-05-11T11:53:48.484Z,9.43
2019-05-11T11:56:19.132Z,9.45
2019-05-11T11:58:48.890Z,9.48
2019-05-11T12:01:18.921Z,7.85
2019-05-11T12:03:48.806Z,8.85
2019-05-11T12:06:18.206Z,9.75
2019-05-11T12:08:49.364Z,9.15
2019-05-11T12:11:18.627Z,8.30
2019-05-11T12:13:47.580Z,7.83
2019-05-11T12:16:17.978Z,9.10
2019-05-11T12:18:48.402Z,11.00
2019-05-11T12:21:18.317Z,9.78
2019-05-11T12:23:48.458Z,9.00
2019-05-11T12:26:17.741Z,7.30
2019-05-11T12:28:48.743Z,7.17
2019-05-11T12:31:18.377Z,8.00
2019-05-11T12:33:48.328Z,9.80
2019-05-11T12:36:18.859Z,8.05
2019-05-11T12:38:48.729Z,8.10
2019-05-11T12:41:18.984Z,8.78
2019-05-11T12:43:48.674Z,8.58
2019-05-11T12:46:58.389Z,8.73
2019-05-11T12:52:11.723Z,8.87
2019-05-11T12:54:40.071Z,6.85
2019-05-11T12:57:20.379Z,9.03
2019-05-11T12:59:58.095Z,8.90
2019-05-11T13:02:27.945Z,8.48
2019-05-11T13:05:08.488Z,6.78
2019-05-11T13:07:39.421Z,6.30
2019-05-11T13:15:35.132Z,6.10
2019-05-11T13:18:03.423Z,6.10
2019-05-11T13:20:31.783Z,6.42
2019-05-11T13:23:00.198Z,4.97
2019-05-11T13:25:28.537Z,6.65
2019-05-11T13:27:58.104Z,6.33
2019-05-11T13:30:27.865Z,8.98
2019-05-11T13:32:58.037Z,5.75
2019-05-11T13:35:28.513Z,6.15
2019-05-11T13:37:58.471Z,6.62
2019-05-11T13:42:58.077Z,46.73
2019-05-11T13:45:31.862Z,32.73
2019-05-11T13:48:12.396Z,16.90
2019-05-11T13:50:40.786Z,55.43
2019-05-11T13:53:09.202Z,83.20
2019-05-11T13:55:38.810Z,39.13
2019-05-11T13:58:12.088Z,27.00
2019-05-11T14:00:42.563Z,32.23
2019-05-11T14:03:10.569Z,8.18
2019-05-11T14:05:38.938Z,20.97
2019-05-11T14:08:08.183Z,60.95
2019-05-11T14:10:38.347Z,60.23
2019-05-11T14:13:08.759Z,30.80
2019-05-11T14:15:37.691Z,26.73
2019-05-11T14:18:09.460Z,85.50
2019-05-11T14:20:37.846Z,42.53
2019-05-11T14:23:07.717Z,20.68
2019-05-11T14:25:38.123Z,37.93
2019-05-11T14:28:08.186Z,32.45
2019-05-11T14:30:38.012Z,18.92
2019-05-11T14:33:08.520Z,34.55
2019-05-11T14:35:38.310Z,11.30
2019-05-11T14:38:07.979Z,18.87
2019-05-11T14:40:38.736Z,11.43
2019-05-11T14:43:08.398Z,19.70
2019-05-11T14:45:38.052Z,70.97
2019-05-11T14:48:22.566Z,12.82
2019-05-11T14:50:38.598Z,28.62
2019-05-11T14:53:08.626Z,11.40
2019-05-11T14:55:38.134Z,10.05
2019-05-11T14:58:08.299Z,10.68
2019-05-11T15:00:38.981Z,10.80
2019-05-11T15:03:07.885Z,8.80
2019-05-11T15:05:37.915Z,11.40
2019-05-11T15:08:08.588Z,8.90
2019-05-11T15:13:18.586Z,10.68
2019-05-11T15:15:48.807Z,9.15
2019-05-11T15:18:17.718Z,8.85
2019-05-11T15:20:47.967Z,7.33
2019-05-11T15:23:18.029Z,8.68
2019-05-11T15:25:48.569Z,7.75
2019-05-11T15:28:18.087Z,7.37
2019-05-11T15:30:48.264Z,7.83
2019-05-11T15:33:18.362Z,8.60
2019-05-11T15:35:47.903Z,7.40
2019-05-11T15:38:17.875Z,6.60
2019-05-11T15:40:48.593Z,4.80
2019-05-11T15:43:17.920Z,7.75
2019-05-11T15:45:48.568Z,9.25
2019-05-11T15:48:18.481Z,6.40
2019-05-11T15:50:48.585Z,7.17
2019-05-11T15:53:17.815Z,13.15
2019-05-11T15:55:46.483Z,8.95
2019-05-11T15:58:14.797Z,10.40
2019-05-11T16:00:43.083Z,6.47
2019-05-11T16:03:12.035Z,6.20
2019-05-11T16:05:40.886Z,5.70
2019-05-11T16:08:09.231Z,5.72
2019-05-11T16:10:38.417Z,7.53
2019-05-11T16:13:09.081Z,4.95
2019-05-11T16:15:38.401Z,5.65
2019-05-11T16:18:08.291Z,5.47
2019-05-11T16:20:40.020Z,6.10
2019-05-11T16:23:08.322Z,5.72
2019-05-11T16:25:38.312Z,6.58
2019-05-11T16:28:07.765Z,5.40
2019-05-11T16:30:37.862Z,7.45
2019-05-11T16:33:11.097Z,5.17
2019-05-11T16:35:40.970Z,5.27
2019-05-11T16:38:12.749Z,5.75
2019-05-11T16:40:41.051Z,5.65
2019-05-11T16:43:09.349Z,4.75
2019-05-11T16:45:37.639Z,5.97
2019-05-11T16:48:07.971Z,6.00
2019-05-11T16:50:38.197Z,4.70
2019-05-11T16:53:06.336Z,5.40
2019-05-11T16:55:34.701Z,4.30
2019-05-11T16:58:03.063Z,5.37
2019-05-11T17:00:31.356Z,6.00
2019-05-11T17:02:59.676Z,6.55
2019-05-11T17:05:33.349Z,4.75
2019-05-11T17:07:58.770Z,5.70
2019-05-11T17:10:28.427Z,4.55
2019-05-11T17:12:58.063Z,5.75
2019-05-11T17:15:28.691Z,5.60
2019-05-11T17:17:58.559Z,7.87
2019-05-11T17:20:27.741Z,4.70
2019-05-11T17:22:56.132Z,5.95
2019-05-11T17:25:24.460Z,6.90
2019-05-11T17:27:52.757Z,6.15
2019-05-11T17:30:21.402Z,7.22
2019-05-11T17:32:50.170Z,7.95
2019-05-11T17:35:18.627Z,6.50
2019-05-11T17:37:48.591Z,6.75
2019-05-11T17:40:20.551Z,4.47
2019-05-11T17:42:48.264Z,5.35
2019-05-11T17:45:18.974Z,6.53
2019-05-11T17:47:46.835Z,5.53
2019-05-11T17:50:15.305Z,5.97
2019-05-11T17:52:43.862Z,7.25
2019-05-11T17:55:12.187Z,8.70
2019-05-11T17:57:40.475Z,6.05
2019-05-11T18:00:08.943Z,7.17
2019-05-11T18:02:38.958Z,8.73
2019-05-11T18:05:08.937Z,8.88
2019-05-11T18:07:38.573Z,21.73
2019-05-11T18:10:08.160Z,16.48
2019-05-11T18:12:38.816Z,46.13
2019-05-11T18:15:08.205Z,19.37
2019-05-11T18:17:36.772Z,14.70
2019-05-11T18:20:17.391Z,14.93
2019-05-11T18:22:38.969Z,15.32
2019-05-11T18:25:08.630Z,14.75
2019-05-11T18:27:38.651Z,8.00
2019-05-11T18:30:08.722Z,12.30
2019-05-11T18:32:39.453Z,19.67
2019-05-11T18:35:08.526Z,8.85
2019-05-11T18:37:38.940Z,16.60
2019-05-11T18:40:07.496Z,10.83
2019-05-11T18:42:38.090Z,15.33
2019-05-11T18:45:10.800Z,8.47
2019-05-11T18:47:40.904Z,9.48
2019-05-11T18:50:11.592Z,10.08
2019-05-11T18:52:44.198Z,20.27
2019-05-11T18:55:18.430Z,8.03
2019-05-11T18:57:44.372Z,10.08
2019-05-11T19:00:12.736Z,9.78
2019-05-11T19:02:41.121Z,8.03
2019-05-11T19:05:09.444Z,8.98
2019-05-11T19:07:38.765Z,8.23
2019-05-11T19:13:38.558Z,7.95
2019-05-11T19:16:08.442Z,8.90
2019-05-11T19:18:38.562Z,8.25
2019-05-11T19:28:39.312Z,8.20
2019-05-11T19:31:08.310Z,8.38
2019-05-11T19:33:38.171Z,8.28
2019-05-11T19:36:07.924Z,7.75
2019-05-11T19:38:38.313Z,8.38
2019-05-11T19:41:08.049Z,6.92
2019-05-11T19:43:38.172Z,7.75
2019-05-11T19:46:08.630Z,5.92
2019-05-11T19:48:38.445Z,7.00
2019-05-11T19:51:09.102Z,6.25
2019-05-11T19:53:38.627Z,9.90
2019-05-11T20:04:52.886Z,7.03
2019-05-11T20:07:21.286Z,6.80
2019-05-11T20:09:49.588Z,7.40
2019-05-11T20:12:18.265Z,7.20
2019-05-11T20:14:48.257Z,8.33
2019-05-11T20:17:18.222Z,6.87
2019-05-11T20:19:48.901Z,9.18
2019-05-11T20:22:18.370Z,5.57
2019-05-11T20:24:47.629Z,7.43
2019-05-11T20:27:16.038Z,5.67
2019-05-11T20:29:44.367Z,8.20
2019-05-11T20:32:12.680Z,8.53
2019-05-11T20:34:40.962Z,7.47
2019-05-11T20:37:09.307Z,8.50
2019-05-11T20:39:38.038Z,6.28
2019-05-11T20:42:08.566Z,6.53
2019-05-11T20:44:45.864Z,6.30
2019-05-11T20:47:19.628Z,6.55
2019-05-11T20:55:37.676Z,7.40
2019-05-11T20:58:08.456Z,7.22
